createdAt,value
2022-11-27T00:00:48.742Z,17.55
2022-11-27T00:03:16.625Z,16.67
2022-11-27T00:05:52.904Z,13.45
2022-11-27T00:08:20.631Z,13.88
2022-11-27T00:10:48.352Z,12.63
2022-11-27T00:13:17.476Z,12.57
2022-11-27T00:15:45.339Z,13.45
2022-11-27T00:18:13.447Z,13.32
2022-11-27T00:20:41.163Z,13.70
2022-11-27T00:23:08.842Z,13.38
2022-11-27T00:25:36.550Z,13.93
2022-11-27T00:28:04.327Z,13.52
2022-11-27T00:30:33.338Z,13.65
2022-11-27T00:33:00.998Z,14.90
2022-11-27T00:35:28.679Z,13.85
2022-11-27T00:37:56.342Z,14.50
2022-11-27T00:40:24.039Z,13.55
2022-11-27T00:42:51.761Z,14.10
2022-11-27T00:45:19.487Z,13.25
2022-11-27T00:47:48.578Z,12.70
2022-11-27T00:50:17.222Z,13.48
2022-11-27T00:52:44.949Z,13.35
2022-11-27T00:55:13.506Z,12.88
2022-11-27T00:57:41.246Z,12.05
2022-11-27T01:00:10.097Z,11.63
2022-11-27T01:02:37.886Z,11.07
2022-11-27T01:05:08.250Z,11.25
2022-11-27T01:07:36.016Z,10.07
2022-11-27T01:10:03.924Z,9.75
2022-11-27T01:12:31.659Z,9.57
2022-11-27T01:14:59.562Z,8.98
2022-11-27T01:17:27.377Z,10.30
2022-11-27T01:19:55.072Z,9.38
2022-11-27T01:22:24.120Z,9.32
2022-11-27T01:24:51.903Z,9.60
2022-11-27T01:27:19.594Z,9.25
2022-11-27T01:29:47.253Z,8.50
2022-11-27T01:32:14.982Z,8.73
2022-11-27T01:34:42.894Z,8.82
2022-11-27T01:37:10.616Z,8.48
2022-11-27T01:39:39.652Z,7.90
2022-11-27T01:42:07.448Z,7.57
2022-11-27T01:44:54.945Z,8.20
2022-11-27T01:47:32.571Z,7.55
2022-11-27T01:50:07.328Z,7.43
2022-11-27T01:52:38.080Z,7.65
2022-11-27T01:55:11.607Z,7.30
2022-11-27T01:57:43.899Z,7.50
2022-11-27T02:00:15.479Z,8.20
2022-11-27T02:02:44.690Z,7.57
2022-11-27T02:05:17.190Z,7.55
2022-11-27T02:07:45.642Z,7.28
2022-11-27T02:10:15.584Z,7.20
2022-11-27T02:12:58.151Z,7.88
2022-11-27T02:15:35.788Z,7.68
2022-11-27T02:18:11.379Z,7.95
2022-11-27T02:20:49.665Z,8.18
2022-11-27T02:23:51.532Z,8.40
2022-11-27T02:26:44.341Z,8.05
2022-11-27T02:29:15.186Z,8.45
2022-11-27T02:31:51.884Z,8.27
2022-11-27T02:34:27.280Z,9.23
2022-11-27T02:37:02.163Z,9.50
2022-11-27T02:39:36.247Z,9.95
2022-11-27T02:42:11.796Z,9.82
2022-11-27T02:44:46.365Z,10.13
2022-11-27T02:47:15.840Z,10.65
2022-11-27T02:49:45.143Z,10.13
2022-11-27T02:52:14.502Z,11.25
2022-11-27T02:54:44.667Z,11.07
2022-11-27T02:57:14.708Z,11.48
2022-11-27T02:59:45.961Z,12.20
2022-11-27T03:02:19.231Z,12.68
2022-11-27T03:04:50.952Z,12.05
2022-11-27T03:07:27.639Z,11.75
2022-11-27T03:10:01.930Z,11.90
2022-11-27T03:12:29.680Z,11.77
2022-11-27T03:14:59.120Z,11.02
2022-11-27T03:17:51.533Z,11.15
2022-11-27T03:20:24.823Z,10.68
2022-11-27T03:25:21.576Z,10.75
2022-11-27T03:27:53.900Z,11.05
2022-11-27T03:30:23.135Z,12.20
2022-11-27T03:32:50.889Z,12.00
2022-11-27T03:35:22.341Z,12.82
2022-11-27T03:37:50.717Z,11.73
2022-11-27T03:40:19.748Z,13.23
2022-11-27T03:42:59.511Z,13.30
2022-11-27T03:45:37.189Z,12.88
2022-11-27T03:48:17.586Z,13.60
2022-11-27T03:50:54.888Z,13.27
2022-11-27T03:53:28.233Z,13.10
2022-11-27T03:56:06.739Z,12.90
2022-11-27T03:58:42.224Z,13.75
2022-11-27T04:01:13.494Z,13.13
2022-11-27T04:03:41.514Z,14.43
2022-11-27T04:06:09.323Z,14.40
2022-11-27T04:08:37.250Z,14.45
2022-11-27T04:11:05.069Z,14.63
2022-11-27T04:13:32.927Z,16.20
2022-11-27T04:16:02.160Z,15.18
2022-11-27T04:18:31.535Z,15.82
2022-11-27T04:20:59.364Z,16.75
2022-11-27T04:23:27.040Z,16.45
2022-11-27T04:25:54.713Z,17.25
2022-11-27T04:28:22.468Z,16.73
2022-11-27T04:30:53.806Z,15.82
2022-11-27T04:33:22.064Z,15.23
2022-11-27T04:35:51.384Z,14.82
2022-11-27T04:38:19.358Z,15.52
2022-11-27T04:40:47.083Z,15.18
2022-11-27T04:43:15.109Z,15.02
2022-11-27T04:45:44.297Z,14.35
2022-11-27T04:48:12.039Z,14.95
2022-11-27T04:50:39.971Z,14.60
2022-11-27T04:53:08.989Z,13.77
2022-11-27T04:55:36.974Z,13.48
2022-11-27T04:58:04.849Z,13.85
2022-11-27T05:00:32.622Z,14.20
2022-11-27T05:03:00.489Z,14.63
2022-11-27T05:05:28.321Z,12.98
2022-11-27T05:07:56.192Z,14.68
2022-11-27T05:10:25.422Z,14.15
2022-11-27T05:12:53.144Z,14.23
2022-11-27T05:15:20.850Z,13.02
2022-11-27T05:17:48.561Z,11.85
2022-11-27T05:20:16.635Z,12.18
2022-11-27T05:22:46.151Z,12.02
2022-11-27T05:25:13.865Z,12.02
2022-11-27T05:27:42.985Z,12.35
2022-11-27T05:30:11.231Z,11.38
2022-11-27T05:32:39.329Z,11.20
2022-11-27T05:35:07.697Z,11.18
2022-11-27T05:37:35.392Z,10.90
2022-11-27T05:40:03.176Z,11.15
2022-11-27T05:42:30.879Z,10.77
2022-11-27T05:44:59.899Z,10.07
2022-11-27T05:47:27.542Z,11.43
2022-11-27T05:49:55.272Z,10.35
2022-11-27T05:52:23.029Z,10.77
2022-11-27T05:54:50.706Z,10.35
2022-11-27T05:57:18.424Z,10.57
2022-11-27T05:59:46.082Z,9.82
2022-11-27T06:02:20.725Z,10.75
2022-11-27T06:04:50.469Z,10.10
2022-11-27T06:07:18.519Z,10.48
2022-11-27T06:10:00.354Z,9.27
2022-11-27T06:12:28.059Z,9.13
2022-11-27T06:14:55.830Z,9.68
2022-11-27T06:17:25.144Z,10.02
2022-11-27T06:19:52.790Z,9.98
2022-11-27T06:22:20.557Z,10.32
2022-11-27T06:24:48.280Z,9.80
2022-11-27T06:27:15.966Z,9.40
2022-11-27T06:29:43.830Z,9.82
2022-11-27T06:32:12.133Z,10.68
2022-11-27T06:34:41.371Z,9.57
2022-11-27T06:37:13.003Z,9.80
2022-11-27T06:39:41.152Z,9.77
2022-11-27T06:42:08.996Z,9.73
2022-11-27T06:44:36.770Z,8.55
2022-11-27T06:47:04.540Z,17.10
2022-11-27T06:49:32.511Z,15.48
2022-11-27T06:52:01.639Z,10.65
2022-11-27T06:54:29.485Z,12.20
2022-11-27T06:56:58.337Z,10.15
2022-11-27T06:59:26.464Z,9.35
2022-11-27T07:01:54.214Z,8.63
2022-11-27T07:04:22.002Z,10.38
2022-11-27T07:06:49.741Z,12.00
2022-11-27T07:09:18.896Z,9.07
2022-11-27T07:11:46.575Z,9.48
2022-11-27T07:14:14.320Z,9.13
2022-11-27T07:16:42.174Z,10.05
2022-11-27T07:19:09.966Z,10.80
2022-11-27T07:21:38.045Z,9.88
2022-11-27T07:24:06.314Z,8.55
2022-11-27T07:26:35.592Z,10.18
2022-11-27T07:29:03.323Z,9.38
2022-11-27T07:31:31.955Z,9.35
2022-11-27T07:34:00.029Z,7.53
2022-11-27T07:36:30.184Z,7.82
2022-11-27T07:38:58.539Z,9.05
2022-11-27T07:41:32.236Z,8.35
2022-11-27T07:44:02.992Z,7.97
2022-11-27T07:46:31.256Z,9.15
2022-11-27T07:49:00.446Z,8.77
2022-11-27T07:51:28.828Z,9.50
2022-11-27T07:53:56.589Z,9.18
2022-11-27T07:56:24.383Z,9.40
2022-11-27T07:58:52.176Z,10.77
2022-11-27T08:01:22.213Z,29.92
2022-11-27T08:03:50.082Z,12.57
2022-11-27T08:06:19.867Z,12.55
2022-11-27T08:08:48.963Z,12.63
2022-11-27T08:11:19.064Z,12.68
2022-11-27T08:13:46.910Z,11.80
2022-11-27T08:16:14.992Z,11.65
2022-11-27T08:18:44.151Z,11.30
2022-11-27T08:21:12.056Z,10.60
2022-11-27T08:23:39.833Z,9.95
2022-11-27T08:26:09.335Z,11.40
2022-11-27T08:28:37.405Z,10.45
2022-11-27T08:31:06.789Z,11.35
2022-11-27T08:33:35.014Z,10.90
2022-11-27T08:36:04.515Z,10.95
2022-11-27T08:38:32.279Z,10.93
2022-11-27T08:41:01.971Z,12.23
2022-11-27T08:43:30.398Z,12.13
2022-11-27T08:45:58.747Z,10.77
2022-11-27T08:48:27.132Z,10.02
2022-11-27T08:50:55.206Z,10.20
2022-11-27T08:53:24.308Z,11.65
2022-11-27T08:55:51.994Z,11.40
2022-11-27T08:58:20.999Z,10.30
2022-11-27T09:00:48.750Z,11.05
2022-11-27T09:03:16.541Z,11.82
2022-11-27T09:05:45.205Z,10.80
2022-11-27T09:08:16.520Z,11.45
2022-11-27T09:10:45.649Z,10.63
2022-11-27T09:13:13.317Z,10.82
2022-11-27T09:15:41.059Z,10.25
2022-11-27T09:18:08.812Z,10.48
2022-11-27T09:20:36.565Z,10.68
2022-11-27T09:23:04.429Z,10.10
2022-11-27T09:25:32.157Z,9.90
2022-11-27T09:28:01.244Z,15.13
2022-11-27T09:30:28.988Z,10.77
2022-11-27T09:32:56.737Z,11.85
2022-11-27T09:35:24.525Z,11.23
2022-11-27T09:37:52.224Z,10.70
2022-11-27T09:40:20.066Z,10.82
2022-11-27T09:42:51.409Z,10.45
2022-11-27T09:45:20.599Z,9.52
2022-11-27T09:47:53.972Z,9.45
2022-11-27T09:50:25.958Z,10.32
2022-11-27T09:52:57.046Z,10.07
2022-11-27T09:55:29.676Z,9.82
2022-11-27T09:58:03.602Z,10.52
2022-11-27T10:00:32.755Z,9.20
2022-11-27T10:03:01.079Z,9.77
2022-11-27T10:05:39.176Z,10.23
2022-11-27T10:08:37.785Z,8.52
2022-11-27T10:11:19.464Z,9.35
2022-11-27T10:14:06.057Z,8.32
2022-11-27T10:16:44.490Z,9.95
2022-11-27T10:19:26.614Z,8.80
2022-11-27T10:22:00.625Z,8.80
2022-11-27T10:24:39.134Z,31.08
2022-11-27T10:27:18.455Z,23.05
2022-11-27T10:29:53.184Z,41.45
2022-11-27T10:32:54.162Z,34.47
2022-11-27T10:35:15.366Z,14.07
2022-11-27T10:37:46.691Z,10.88
2022-11-27T10:40:24.184Z,11.23
2022-11-27T10:42:59.901Z,20.02
2022-11-27T10:45:38.182Z,12.23
2022-11-27T10:48:07.782Z,8.88
2022-11-27T10:50:35.493Z,8.98
2022-11-27T10:53:07.145Z,9.77
2022-11-27T10:55:49.689Z,8.73
2022-11-27T10:58:24.906Z,9.10
2022-11-27T11:01:02.093Z,10.20
2022-11-27T11:03:31.226Z,10.20
2022-11-27T11:06:20.109Z,9.32
2022-11-27T11:08:50.593Z,9.27
2022-11-27T11:11:27.143Z,9.13
2022-11-27T11:13:55.815Z,8.65
2022-11-27T11:16:31.917Z,10.55
2022-11-27T11:19:06.297Z,9.30
2022-11-27T11:21:36.419Z,8.88
2022-11-27T11:24:07.873Z,9.82
2022-11-27T11:26:39.979Z,9.82
2022-11-27T11:29:29.378Z,12.02
2022-11-27T11:32:01.761Z,10.10
2022-11-27T11:34:32.479Z,10.00
2022-11-27T11:37:02.787Z,9.07
2022-11-27T11:39:34.133Z,10.00
2022-11-27T11:42:02.118Z,8.60
2022-11-27T11:44:34.844Z,9.20
2022-11-27T11:47:02.698Z,8.90
2022-11-27T11:49:35.876Z,9.13
2022-11-27T11:52:28.370Z,10.35
2022-11-27T11:55:04.848Z,9.57
2022-11-27T11:58:10.189Z,8.32
2022-11-27T12:01:04.902Z,8.23
2022-11-27T12:03:52.442Z,8.82
2022-11-27T12:06:56.191Z,8.40
2022-11-27T12:09:35.787Z,8.07
2022-11-27T12:12:13.797Z,8.05
2022-11-27T12:14:46.196Z,8.38
2022-11-27T12:17:28.642Z,8.13
2022-11-27T12:20:12.169Z,8.70
2022-11-27T12:23:05.077Z,8.00
2022-11-27T12:25:37.829Z,8.30
2022-11-27T12:28:25.520Z,8.82
2022-11-27T12:31:03.081Z,8.90
2022-11-27T12:33:52.732Z,8.95
2022-11-27T12:36:32.163Z,8.65
2022-11-27T12:39:13.388Z,8.38
2022-11-27T12:42:00.172Z,7.80
2022-11-27T12:44:36.320Z,9.10
2022-11-27T12:47:11.316Z,8.05
2022-11-27T12:49:44.760Z,8.38
2022-11-27T12:52:17.961Z,8.95
2022-11-27T12:54:52.627Z,8.60
2022-11-27T12:57:26.328Z,7.93
2022-11-27T12:59:59.432Z,7.18
2022-11-27T13:02:33.079Z,8.07
2022-11-27T13:05:05.040Z,7.55
2022-11-27T13:07:41.908Z,7.80
2022-11-27T13:10:32.621Z,7.45
2022-11-27T13:13:07.304Z,7.85
2022-11-27T13:15:40.966Z,7.75
2022-11-27T13:18:19.794Z,9.60
2022-11-27T13:20:52.288Z,8.30
2022-11-27T13:23:21.064Z,8.75
2022-11-27T13:25:56.862Z,8.20
2022-11-27T13:28:31.234Z,9.30
2022-11-27T13:31:01.146Z,9.60
2022-11-27T13:33:38.098Z,10.27
2022-11-27T13:36:08.898Z,10.32
2022-11-27T13:38:41.989Z,10.93
2022-11-27T13:41:22.230Z,12.13
2022-11-27T13:43:50.623Z,12.35
2022-11-27T13:46:24.660Z,13.48
2022-11-27T13:48:55.771Z,13.82
2022-11-27T13:51:26.976Z,13.85
2022-11-27T13:53:55.167Z,13.82
2022-11-27T13:56:32.162Z,14.68
2022-11-27T13:59:00.341Z,15.57
2022-11-27T14:01:28.318Z,14.38
2022-11-27T14:04:07.269Z,13.70
2022-11-27T14:06:35.063Z,14.32
2022-11-27T14:09:05.051Z,14.75
2022-11-27T14:11:39.972Z,13.98
2022-11-27T14:14:19.066Z,13.65
2022-11-27T14:16:58.587Z,14.15
2022-11-27T14:19:34.062Z,14.40
2022-11-27T14:22:02.763Z,15.45
2022-11-27T14:24:41.631Z,14.10
2022-11-27T14:27:18.054Z,14.32
2022-11-27T14:29:46.216Z,15.45
2022-11-27T14:32:15.929Z,13.82
2022-11-27T14:34:43.947Z,17.38
2022-11-27T14:37:22.462Z,13.75
2022-11-27T14:39:50.187Z,15.63
2022-11-27T14:42:28.176Z,16.08
2022-11-27T14:45:03.876Z,14.15
2022-11-27T14:47:31.885Z,15.13
2022-11-27T14:50:00.549Z,13.43
2022-11-27T14:52:29.019Z,13.07
2022-11-27T14:54:58.683Z,13.32
2022-11-27T14:57:30.041Z,13.98
2022-11-27T15:00:15.094Z,14.27
2022-11-27T15:02:43.321Z,12.32
2022-11-27T15:05:20.000Z,12.02
2022-11-27T15:07:50.968Z,12.43
2022-11-27T15:10:30.109Z,14.25
2022-11-27T15:13:01.035Z,15.82
2022-11-27T15:15:34.654Z,15.68
2022-11-27T15:18:05.452Z,15.88
2022-11-27T15:20:38.833Z,15.13
2022-11-27T15:23:17.558Z,15.45
2022-11-27T15:26:07.238Z,15.52
2022-11-27T15:28:41.860Z,14.80
2022-11-27T15:31:28.870Z,13.50
2022-11-27T15:33:59.207Z,12.68
2022-11-27T15:36:28.250Z,12.10
2022-11-27T15:39:12.013Z,12.70
2022-11-27T15:41:43.622Z,12.25
2022-11-27T15:44:12.975Z,12.95
2022-11-27T15:46:42.723Z,14.00
2022-11-27T15:49:14.169Z,12.63
2022-11-27T15:51:41.912Z,13.23
2022-11-27T15:54:09.783Z,15.65
2022-11-27T15:56:37.524Z,15.50
2022-11-27T15:59:05.507Z,15.77
2022-11-27T16:01:34.842Z,14.75
2022-11-27T16:04:02.589Z,15.15
2022-11-27T16:06:30.346Z,15.82
2022-11-27T16:08:59.631Z,15.23
2022-11-27T16:11:28.824Z,13.77
2022-11-27T16:13:56.840Z,14.30
2022-11-27T16:16:25.808Z,12.63
2022-11-27T16:18:57.814Z,12.93
2022-11-27T16:21:29.445Z,13.57
2022-11-27T16:23:58.954Z,13.48
2022-11-27T16:26:27.587Z,12.30
2022-11-27T16:28:56.237Z,13.50
2022-11-27T16:31:25.314Z,13.50
2022-11-27T16:33:54.792Z,14.23
2022-11-27T16:36:24.237Z,13.45
2022-11-27T16:38:54.344Z,13.60
2022-11-27T16:41:23.817Z,13.13
2022-11-27T16:43:52.902Z,12.65
2022-11-27T16:46:22.978Z,12.60
2022-11-27T16:48:51.425Z,12.23
2022-11-27T16:51:22.707Z,11.68
2022-11-27T16:53:52.072Z,11.95
2022-11-27T16:56:23.541Z,13.07
2022-11-27T16:58:52.354Z,13.98
2022-11-27T17:01:23.427Z,14.38
2022-11-27T17:03:52.486Z,16.00
2022-11-27T17:06:23.233Z,16.73
2022-11-27T17:08:51.011Z,16.35
2022-11-27T17:11:21.783Z,18.23
2022-11-27T17:13:49.879Z,16.55
2022-11-27T17:16:19.077Z,17.48
2022-11-27T17:18:47.467Z,17.73
2022-11-27T17:21:18.178Z,14.73
2022-11-27T17:23:47.650Z,14.23
2022-11-27T17:26:17.392Z,13.43
2022-11-27T17:28:46.103Z,14.07
2022-11-27T17:31:17.081Z,15.63
2022-11-27T17:33:44.948Z,15.05
2022-11-27T17:36:13.024Z,17.90
2022-11-27T17:38:40.805Z,19.15
2022-11-27T17:41:12.045Z,16.70
2022-11-27T17:43:40.873Z,16.85
2022-11-27T17:46:09.531Z,15.27
2022-11-27T17:48:38.113Z,15.98
2022-11-27T17:51:07.509Z,18.33
2022-11-27T17:53:36.039Z,33.67
2022-11-27T17:56:05.239Z,19.50
2022-11-27T17:58:35.030Z,17.40
2022-11-27T18:01:03.224Z,17.33
2022-11-27T18:03:31.580Z,20.15
2022-11-27T18:06:03.513Z,20.33
2022-11-27T18:08:31.266Z,18.00
2022-11-27T18:10:59.351Z,19.05
2022-11-27T18:13:32.386Z,19.50
2022-11-27T18:16:07.184Z,18.92
2022-11-27T18:18:35.238Z,23.77
2022-11-27T18:21:08.529Z,23.48
2022-11-27T18:23:49.609Z,22.02
2022-11-27T18:26:45.300Z,19.73
2022-11-27T18:29:14.363Z,17.77
2022-11-27T18:31:43.552Z,16.52
2022-11-27T18:34:11.336Z,17.70
2022-11-27T18:36:39.189Z,16.35
2022-11-27T18:39:07.070Z,19.80
2022-11-27T18:41:34.913Z,23.38
2022-11-27T18:44:02.779Z,22.52
2022-11-27T18:46:30.605Z,21.00
2022-11-27T18:48:59.814Z,22.88
2022-11-27T18:51:27.622Z,18.65
2022-11-27T18:53:56.486Z,19.80
2022-11-27T18:56:26.153Z,16.08
2022-11-27T18:58:54.962Z,18.92
2022-11-27T19:01:26.101Z,18.27
2022-11-27T19:03:53.963Z,18.90
2022-11-27T19:06:24.712Z,17.33
2022-11-27T19:08:52.756Z,17.05
2022-11-27T19:11:22.342Z,16.90
2022-11-27T19:13:51.275Z,16.00
2022-11-27T19:16:23.103Z,17.30
2022-11-27T19:18:51.346Z,16.70
2022-11-27T19:21:20.908Z,14.77
2022-11-27T19:23:50.559Z,15.02
2022-11-27T19:26:20.104Z,18.80
2022-11-27T19:28:49.985Z,19.30
2022-11-27T19:31:18.077Z,21.48
2022-11-27T19:33:51.288Z,21.98
2022-11-27T19:36:19.355Z,19.73
2022-11-27T19:38:47.085Z,19.05
2022-11-27T19:41:17.906Z,17.80
2022-11-27T19:43:47.244Z,16.88
2022-11-27T19:46:16.624Z,18.73
2022-11-27T19:48:45.395Z,20.20
2022-11-27T19:51:13.880Z,19.60
2022-11-27T19:53:42.254Z,18.65
2022-11-27T19:56:10.539Z,18.23
2022-11-27T19:58:41.024Z,18.25
2022-11-27T20:01:10.245Z,18.73
2022-11-27T20:03:38.653Z,16.95
2022-11-27T20:06:08.168Z,17.73
2022-11-27T20:08:36.525Z,16.65
2022-11-27T20:11:06.171Z,22.60
2022-11-27T20:13:34.257Z,18.95
2022-11-27T20:16:08.234Z,19.48
2022-11-27T20:18:36.759Z,17.67
2022-11-27T20:21:06.526Z,17.88
2022-11-27T20:23:34.655Z,16.63
2022-11-27T20:26:05.116Z,15.85
2022-11-27T20:28:33.001Z,14.85
2022-11-27T20:31:04.303Z,17.60
2022-11-27T20:33:33.136Z,23.85
2022-11-27T20:36:02.128Z,19.45
2022-11-27T20:38:29.969Z,24.77
2022-11-27T20:40:57.742Z,14.98
2022-11-27T20:43:25.543Z,12.13
2022-11-27T20:45:54.028Z,10.63
2022-11-27T20:48:23.129Z,10.05
2022-11-27T20:50:51.583Z,10.25
2022-11-27T20:53:19.702Z,10.25
2022-11-27T20:55:47.606Z,9.25
2022-11-27T20:58:15.476Z,9.30
2022-11-27T21:00:43.317Z,8.95
2022-11-27T21:03:11.111Z,8.95
2022-11-27T21:05:43.569Z,8.95
2022-11-27T21:08:11.304Z,9.25
2022-11-27T21:10:39.085Z,8.75
2022-11-27T21:13:07.945Z,9.25
2022-11-27T21:15:35.704Z,8.00
2022-11-27T21:18:03.415Z,8.18
2022-11-27T21:20:31.595Z,8.43
2022-11-27T21:23:00.777Z,8.45
2022-11-27T21:25:28.524Z,7.93
2022-11-27T21:27:58.128Z,7.72
2022-11-27T21:30:26.164Z,8.35
2022-11-27T21:32:53.903Z,8.23
2022-11-27T21:35:21.666Z,8.68
2022-11-27T21:37:49.404Z,7.97
2022-11-27T21:40:18.841Z,8.25
2022-11-27T21:42:46.567Z,8.05
2022-11-27T21:45:14.397Z,7.10
2022-11-27T21:47:42.383Z,8.10
2022-11-27T21:50:11.661Z,7.13
2022-11-27T21:52:39.426Z,8.35
2022-11-27T21:55:11.689Z,7.63
2022-11-27T21:57:41.240Z,7.55
2022-11-27T22:00:10.128Z,7.50
2022-11-27T22:02:37.926Z,7.50
2022-11-27T22:05:06.536Z,7.75
2022-11-27T22:07:35.940Z,7.20
2022-11-27T22:10:03.761Z,7.97
2022-11-27T22:12:31.509Z,8.00
2022-11-27T22:15:00.628Z,7.68
2022-11-27T22:17:28.355Z,7.78
2022-11-27T22:19:56.418Z,7.50
2022-11-27T22:22:24.143Z,7.50
2022-11-27T22:24:51.913Z,7.50
2022-11-27T22:27:19.749Z,7.53
2022-11-27T22:29:47.476Z,7.82
2022-11-27T22:32:16.577Z,7.50
2022-11-27T22:34:44.786Z,8.15
2022-11-27T22:37:12.572Z,7.47
2022-11-27T22:39:41.419Z,7.93
2022-11-27T22:42:09.195Z,7.95
2022-11-27T22:44:36.948Z,8.00
2022-11-27T22:47:04.702Z,8.05
2022-11-27T22:49:33.844Z,7.72
2022-11-27T22:52:01.788Z,7.20
2022-11-27T22:54:29.505Z,7.25
2022-11-27T22:56:57.210Z,7.03
2022-11-27T22:59:32.312Z,6.90
2022-11-27T23:02:01.349Z,6.50
2022-11-27T23:04:29.211Z,7.55
2022-11-27T23:06:58.357Z,7.70
2022-11-27T23:09:26.413Z,7.93
2022-11-27T23:11:54.239Z,7.32
2022-11-27T23:14:21.961Z,6.68
2022-11-27T23:16:50.100Z,6.78
2022-11-27T23:19:17.831Z,7.20
2022-11-27T23:21:45.683Z,7.28
2022-11-27T23:24:16.067Z,7.55
2022-11-27T23:26:45.731Z,7.32
2022-11-27T23:29:14.319Z,6.93
2022-11-27T23:31:42.280Z,7.13
2022-11-27T23:34:13.159Z,6.78
2022-11-27T23:36:40.891Z,6.72
2022-11-27T23:39:10.009Z,6.72
2022-11-27T23:41:39.787Z,6.43
2022-11-27T23:44:07.807Z,6.55
2022-11-27T23:46:35.671Z,6.50
2022-11-27T23:49:03.414Z,6.65
2022-11-27T23:51:33.300Z,6.85
2022-11-27T23:54:01.953Z,6.57
2022-11-27T23:56:31.511Z,6.93
2022-11-27T23:59:00.988Z,6.78
